Terminal Aerodrome Forecast
Issued by NWS Twin Cities, MN

Home | Current Version | Previous Version | Graphics & Text | Print | Product List | Glossary On
Versions: 1 2 3 4 5 6 7 8 9 10 11 12 13 14 15 16 17 18 19 20 21 22 23 24 25 26
000
FTUS43 KMPX 122300
TAFMSP
TAF
KMSP 122335Z 1300/1406 29006KT P6SM FEW050 BKN120
     FM130400 29004KT P6SM SCT120
     FM131500 31012G18KT P6SM FEW045
     FM132100 30016G23KT P6SM SCT050
     FM140200 29008KT P6SM BKN045=

USA.gov is the U.S. government's official web portal to all federal, state and local government web resources and services.